Lowry, MN (56349)

7:03 AM CDT on August 20, 2014 (GMT -0500)
KMGK (Magic 107.1) FM | Change Station
CLOSE
Current Station
Personal Weather Station
Location: Glenwood, MN
Elevation: 1168 ft
Nearby Weather Stations
Active Advisory: Special Statement

Elev 1168 ft 45.65 °N, 95.39 °W | Updated 10 seconds ago

Fog
Fog
63.6 °F
Feels Like 63.6 °F
N
0.0
Wind Variable Wind from NE
Gusts 1.0 mph

Today
High -- | Low -- °F
--% Chance of Precip.
Yesterday
High -- | Low -- °F
Precip. -- in
6:28 AM 8:21 PM
Waning Crescent, 22% visible
Pressure 29.84 in
Visibility 0.2 miles
Clouds
Dew Point 63 °F
Humidity 98%
Rainfall 0.00 in
Snow Depth Not available.
UV Not available.
Pollen 9.80 out of 12
Air Quality Not available.
Flu Activity Not available.
METAR KGHW 201154Z AUTO 10003KT 1/4SM FG VV002 16/15 A2984 RMK AO2

More Conditions Fewer Conditions

Pressure 29.84 in
Visibility 0.2 miles
Clouds
Dew Point 63 °F
Humidity 98%
Rainfall 0.00 in
Snow Depth Not available.
UV Not available.
Pollen 9.80 out of 12
Air Quality Not available.
Flu Activity Not available.
METAR KGHW 201154Z AUTO 10003KT 1/4SM FG VV002 16/15 A2984 RMK AO2

More Conditions Fewer Conditions

10-Day Weather Forecast

Almanac

Astronomy

Aug. 20, 2014 Rise Set
Actual Time 6:28 AM CDT 8:21 PM CDT
Civil Twilight 5:56 AM CDT 8:53 PM CDT
Nautical Twilight 5:17 AM CDT 9:32 PM CDT
Astronomical Twilight 4:34 AM CDT 10:14 PM CDT
Moon 2:03 AM CDT 5:12 PM CDT
Length of Visible Light 14h 56m
Length of Day
13h 53m
Tomorrow will be 2m 57s shorter.
Waning Crescent, 22% of the Moon is Illuminated
Today
Waning Crescent
Aug 25
New
Sep 2
First Quarter
Sep 8
Full
Sep 15
Last Quarter

Today's Extremes

State Highs State Lows

Community

WunderPhotos

Upload Photos

1,745,613 photos uploaded!

WunderBlogs® & News

By Dr. Jeff Masters
Director of Meteorology, Weather Underground
By Kari Strenfel
Meteorologist, Weather Underground
By Christopher C. Burt
Weather Historian, Weather Underground
August 20, 2014
August 20, 2014
August 20, 2014

Nearby

Snow Depth

Station Depth Elevation
No new snow has been reported.

Earthquake Activity

City Distance Mag. Time & Date
No recent earthquake activity has been reported nearby.
Minimum magnitude displayed is 2.5.

Coastal Water Temperatures

Place Temperature
No Stations Reporting

Nearby Weather Stations